sensor_id;sensor_type;location;lat;lon;timestamp;P1;durP1;ratioP1;P2;durP2;ratioP2
52274;SDS011;38228;50.940;4.024;2023-06-26T00:01:16;4.85;;;3.10;;
52274;SDS011;38228;50.940;4.024;2023-06-26T00:03:46;6.50;;;3.08;;
52274;SDS011;38228;50.940;4.024;2023-06-26T00:06:12;5.18;;;3.40;;
52274;SDS011;38228;50.940;4.024;2023-06-26T00:08:38;9.07;;;3.45;;
52274;SDS011;38228;50.940;4.024;2023-06-26T00:11:03;5.47;;;3.30;;
52274;SDS011;38228;50.940;4.024;2023-06-26T00:13:29;5.05;;;3.63;;
52274;SDS011;38228;50.940;4.024;2023-06-26T00:15:55;7.20;;;3.33;;
52274;SDS011;38228;50.940;4.024;2023-06-26T00:18:21;6.97;;;3.53;;
52274;SDS011;38228;50.940;4.024;2023-06-26T00:20:48;5.07;;;2.97;;
52274;SDS011;38228;50.940;4.024;2023-06-26T00:23:15;6.95;;;3.53;;
52274;SDS011;38228;50.940;4.024;2023-06-26T00:25:42;6.85;;;3.80;;
52274;SDS011;38228;50.940;4.024;2023-06-26T00:28:08;9.48;;;3.53;;
52274;SDS011;38228;50.940;4.024;2023-06-26T00:30:34;9.35;;;3.38;;
52274;SDS011;38228;50.940;4.024;2023-06-26T00:33:00;5.50;;;3.53;;
52274;SDS011;38228;50.940;4.024;2023-06-26T00:35:26;5.75;;;3.47;;
52274;SDS011;38228;50.940;4.024;2023-06-26T00:37:52;5.50;;;3.40;;
52274;SDS011;38228;50.940;4.024;2023-06-26T00:40:17;6.40;;;3.28;;
52274;SDS011;38228;50.940;4.024;2023-06-26T00:42:43;6.15;;;3.30;;
52274;SDS011;38228;50.940;4.024;2023-06-26T00:45:09;6.78;;;3.60;;
52274;SDS011;38228;50.940;4.024;2023-06-26T00:47:34;5.13;;;3.42;;
52274;SDS011;38228;50.940;4.024;2023-06-26T00:50:01;8.23;;;3.78;;
52274;SDS011;38228;50.940;4.024;2023-06-26T00:52:27;9.10;;;3.53;;
52274;SDS011;38228;50.940;4.024;2023-06-26T00:54:53;7.13;;;3.88;;
52274;SDS011;38228;50.940;4.024;2023-06-26T00:57:20;7.90;;;3.42;;
52274;SDS011;38228;50.940;4.024;2023-06-26T00:59:46;5.53;;;3.33;;
52274;SDS011;38228;50.940;4.024;2023-06-26T01:02:13;7.65;;;3.47;;
52274;SDS011;38228;50.940;4.024;2023-06-26T01:04:45;5.72;;;3.55;;
52274;SDS011;38228;50.940;4.024;2023-06-26T01:07:15;6.20;;;3.40;;
52274;SDS011;38228;50.940;4.024;2023-06-26T01:09:43;9.80;;;3.35;;
52274;SDS011;38228;50.940;4.024;2023-06-26T01:12:11;5.53;;;2.80;;
52274;SDS011;38228;50.940;4.024;2023-06-26T01:14:37;7.32;;;3.20;;
52274;SDS011;38228;50.940;4.024;2023-06-26T01:17:03;6.00;;;3.42;;
52274;SDS011;38228;50.940;4.024;2023-06-26T01:19:29;8.80;;;3.50;;
52274;SDS011;38228;50.940;4.024;2023-06-26T01:22:00;6.68;;;3.55;;
52274;SDS011;38228;50.940;4.024;2023-06-26T01:24:39;7.72;;;2.95;;
52274;SDS011;38228;50.940;4.024;2023-06-26T01:27:12;6.88;;;3.10;;
52274;SDS011;38228;50.940;4.024;2023-06-26T01:29:39;7.38;;;3.30;;
52274;SDS011;38228;50.940;4.024;2023-06-26T01:32:07;7.15;;;3.42;;
52274;SDS011;38228;50.940;4.024;2023-06-26T01:34:33;6.55;;;3.05;;
52274;SDS011;38228;50.940;4.024;2023-06-26T01:36:58;8.40;;;3.25;;
52274;SDS011;38228;50.940;4.024;2023-06-26T01:39:24;8.52;;;3.63;;
52274;SDS011;38228;50.940;4.024;2023-06-26T01:41:50;8.02;;;3.15;;
52274;SDS011;38228;50.940;4.024;2023-06-26T01:44:17;7.07;;;3.60;;
52274;SDS011;38228;50.940;4.024;2023-06-26T01:46:57;11.57;;;3.60;;
52274;SDS011;38228;50.940;4.024;2023-06-26T01:54:57;9.43;;;3.60;;
52274;SDS011;38228;50.940;4.024;2023-06-26T01:57:28;7.63;;;3.72;;
52274;SDS011;38228;50.940;4.024;2023-06-26T01:59:56;9.68;;;3.70;;
52274;SDS011;38228;50.940;4.024;2023-06-26T02:02:25;10.63;;;3.92;;
52274;SDS011;38228;50.940;4.024;2023-06-26T02:04:51;10.15;;;3.88;;
52274;SDS011;38228;50.940;4.024;2023-06-26T02:07:17;7.68;;;3.83;;
52274;SDS011;38228;50.940;4.024;2023-06-26T02:09:42;9.25;;;3.53;;
52274;SDS011;38228;50.940;4.024;2023-06-26T02:12:08;13.25;;;4.43;;
52274;SDS011;38228;50.940;4.024;2023-06-26T02:14:34;12.75;;;4.38;;
52274;SDS011;38228;50.940;4.024;2023-06-26T02:17:00;9.00;;;3.78;;
52274;SDS011;38228;50.940;4.024;2023-06-26T02:19:26;8.13;;;3.35;;
52274;SDS011;38228;50.940;4.024;2023-06-26T02:21:52;13.02;;;4.18;;
52274;SDS011;38228;50.940;4.024;2023-06-26T02:24:19;12.75;;;4.55;;
52274;SDS011;38228;50.940;4.024;2023-06-26T02:26:45;14.10;;;4.20;;
52274;SDS011;38228;50.940;4.024;2023-06-26T02:29:11;11.30;;;4.90;;
52274;SDS011;38228;50.940;4.024;2023-06-26T02:31:37;14.90;;;5.47;;
52274;SDS011;38228;50.940;4.024;2023-06-26T02:34:03;13.57;;;4.35;;
52274;SDS011;38228;50.940;4.024;2023-06-26T02:36:29;16.10;;;5.15;;
52274;SDS011;38228;50.940;4.024;2023-06-26T02:38:55;17.38;;;5.38;;
52274;SDS011;38228;50.940;4.024;2023-06-26T02:41:21;14.93;;;5.72;;
52274;SDS011;38228;50.940;4.024;2023-06-26T02:43:46;17.17;;;5.50;;
52274;SDS011;38228;50.940;4.024;2023-06-26T02:46:12;13.02;;;4.72;;
52274;SDS011;38228;50.940;4.024;2023-06-26T02:48:38;17.02;;;5.53;;
52274;SDS011;38228;50.940;4.024;2023-06-26T02:51:03;17.77;;;5.82;;
52274;SDS011;38228;50.940;4.024;2023-06-26T02:53:29;16.25;;;5.38;;
52274;SDS011;38228;50.940;4.024;2023-06-26T02:55:56;17.67;;;5.57;;
52274;SDS011;38228;50.940;4.024;2023-06-26T02:58:21;16.30;;;5.10;;
52274;SDS011;38228;50.940;4.024;2023-06-26T03:00:47;13.35;;;5.30;;
52274;SDS011;38228;50.940;4.024;2023-06-26T03:03:13;18.65;;;5.70;;
52274;SDS011;38228;50.940;4.024;2023-06-26T03:05:39;12.20;;;4.75;;
52274;SDS011;38228;50.940;4.024;2023-06-26T03:08:05;20.52;;;5.85;;
52274;SDS011;38228;50.940;4.024;2023-06-26T03:10:30;16.58;;;5.90;;
52274;SDS011;38228;50.940;4.024;2023-06-26T03:12:56;18.52;;;5.32;;
52274;SDS011;38228;50.940;4.024;2023-06-26T03:15:22;16.13;;;5.03;;
52274;SDS011;38228;50.940;4.024;2023-06-26T03:17:47;16.63;;;5.47;;
52274;SDS011;38228;50.940;4.024;2023-06-26T03:20:13;22.77;;;6.30;;
52274;SDS011;38228;50.940;4.024;2023-06-26T03:22:40;17.58;;;5.70;;
52274;SDS011;38228;50.940;4.024;2023-06-26T03:25:06;19.33;;;6.00;;
52274;SDS011;38228;50.940;4.024;2023-06-26T03:27:32;15.98;;;5.80;;
52274;SDS011;38228;50.940;4.024;2023-06-26T03:29:58;19.50;;;5.57;;
52274;SDS011;38228;50.940;4.024;2023-06-26T03:32:24;16.90;;;5.50;;
52274;SDS011;38228;50.940;4.024;2023-06-26T03:34:49;19.13;;;6.00;;
52274;SDS011;38228;50.940;4.024;2023-06-26T03:37:15;17.98;;;5.60;;
52274;SDS011;38228;50.940;4.024;2023-06-26T03:39:41;19.90;;;6.10;;
52274;SDS011;38228;50.940;4.024;2023-06-26T03:42:07;20.67;;;6.25;;
52274;SDS011;38228;50.940;4.024;2023-06-26T03:44:32;18.20;;;5.68;;
52274;SDS011;38228;50.940;4.024;2023-06-26T03:46:58;19.35;;;5.07;;
52274;SDS011;38228;50.940;4.024;2023-06-26T03:49:24;18.67;;;5.63;;
52274;SDS011;38228;50.940;4.024;2023-06-26T03:51:49;20.08;;;5.80;;
52274;SDS011;38228;50.940;4.024;2023-06-26T03:54:15;14.77;;;5.13;;
52274;SDS011;38228;50.940;4.024;2023-06-26T03:56:41;15.82;;;5.50;;
52274;SDS011;38228;50.940;4.024;2023-06-26T03:59:06;19.20;;;6.18;;
52274;SDS011;38228;50.940;4.024;2023-06-26T04:01:32;19.80;;;5.07;;
52274;SDS011;38228;50.940;4.024;2023-06-26T04:04:00;20.40;;;6.03;;
52274;SDS011;38228;50.940;4.024;2023-06-26T04:06:25;15.40;;;4.82;;
52274;SDS011;38228;50.940;4.024;2023-06-26T04:08:51;20.20;;;5.03;;
52274;SDS011;38228;50.940;4.024;2023-06-26T04:11:17;20.98;;;5.55;;
52274;SDS011;38228;50.940;4.024;2023-06-26T04:13:42;19.50;;;4.95;;
52274;SDS011;38228;50.940;4.024;2023-06-26T04:16:08;16.02;;;5.10;;
52274;SDS011;38228;50.940;4.024;2023-06-26T04:18:36;18.65;;;4.85;;
52274;SDS011;38228;50.940;4.024;2023-06-26T04:21:09;17.23;;;4.82;;
52274;SDS011;38228;50.940;4.024;2023-06-26T04:23:37;19.13;;;4.82;;
52274;SDS011;38228;50.940;4.024;2023-06-26T04:26:04;23.45;;;5.18;;
52274;SDS011;38228;50.940;4.024;2023-06-26T04:28:33;22.83;;;5.28;;
52274;SDS011;38228;50.940;4.024;2023-06-26T04:31:00;18.30;;;5.20;;
52274;SDS011;38228;50.940;4.024;2023-06-26T04:33:28;22.70;;;4.40;;
52274;SDS011;38228;50.940;4.024;2023-06-26T04:35:54;23.20;;;6.05;;
52274;SDS011;38228;50.940;4.024;2023-06-26T04:38:20;20.13;;;4.20;;
52274;SDS011;38228;50.940;4.024;2023-06-26T04:40:47;18.88;;;4.68;;
52274;SDS011;38228;50.940;4.024;2023-06-26T04:43:13;17.98;;;4.32;;
52274;SDS011;38228;50.940;4.024;2023-06-26T04:45:39;20.77;;;4.75;;
52274;SDS011;38228;50.940;4.024;2023-06-26T04:48:04;18.60;;;4.65;;
52274;SDS011;38228;50.940;4.024;2023-06-26T04:50:31;23.40;;;4.25;;
52274;SDS011;38228;50.940;4.024;2023-06-26T04:52:58;10.98;;;3.55;;
52274;SDS011;38228;50.940;4.024;2023-06-26T04:55:24;16.13;;;4.20;;
52274;SDS011;38228;50.940;4.024;2023-06-26T04:57:50;17.40;;;4.05;;
52274;SDS011;38228;50.940;4.024;2023-06-26T05:00:16;15.65;;;4.28;;
52274;SDS011;38228;50.940;4.024;2023-06-26T05:02:42;16.65;;;4.10;;
52274;SDS011;38228;50.940;4.024;2023-06-26T05:05:08;17.50;;;4.00;;
52274;SDS011;38228;50.940;4.024;2023-06-26T05:07:34;11.40;;;3.63;;
52274;SDS011;38228;50.940;4.024;2023-06-26T05:09:59;19.60;;;3.88;;
52274;SDS011;38228;50.940;4.024;2023-06-26T05:12:25;13.93;;;3.83;;
52274;SDS011;38228;50.940;4.024;2023-06-26T05:14:51;15.02;;;3.10;;
52274;SDS011;38228;50.940;4.024;2023-06-26T05:17:17;12.25;;;3.90;;
52274;SDS011;38228;50.940;4.024;2023-06-26T05:19:42;12.95;;;3.40;;
52274;SDS011;38228;50.940;4.024;2023-06-26T05:22:08;11.13;;;3.40;;
52274;SDS011;38228;50.940;4.024;2023-06-26T05:24:35;14.50;;;3.58;;
52274;SDS011;38228;50.940;4.024;2023-06-26T05:27:01;15.48;;;3.25;;
52274;SDS011;38228;50.940;4.024;2023-06-26T05:29:27;12.18;;;3.22;;
52274;SDS011;38228;50.940;4.024;2023-06-26T05:31:55;15.85;;;3.17;;
52274;SDS011;38228;50.940;4.024;2023-06-26T05:34:22;12.30;;;3.05;;
52274;SDS011;38228;50.940;4.024;2023-06-26T05:36:50;13.80;;;3.38;;
52274;SDS011;38228;50.940;4.024;2023-06-26T05:39:17;13.40;;;3.17;;
52274;SDS011;38228;50.940;4.024;2023-06-26T05:41:46;12.85;;;3.13;;
52274;SDS011;38228;50.940;4.024;2023-06-26T05:44:12;11.35;;;2.80;;
52274;SDS011;38228;50.940;4.024;2023-06-26T05:46:38;10.57;;;3.03;;
52274;SDS011;38228;50.940;4.024;2023-06-26T05:49:03;12.88;;;3.40;;
52274;SDS011;38228;50.940;4.024;2023-06-26T05:51:29;9.77;;;2.28;;
52274;SDS011;38228;50.940;4.024;2023-06-26T05:53:55;10.45;;;2.67;;
52274;SDS011;38228;50.940;4.024;2023-06-26T05:56:21;9.88;;;2.20;;
52274;SDS011;38228;50.940;4.024;2023-06-26T05:58:47;10.25;;;2.40;;
52274;SDS011;38228;50.940;4.024;2023-06-26T06:01:14;11.93;;;2.80;;
52274;SDS011;38228;50.940;4.024;2023-06-26T06:03:40;8.48;;;2.17;;
52274;SDS011;38228;50.940;4.024;2023-06-26T06:06:05;7.82;;;2.35;;
52274;SDS011;38228;50.940;4.024;2023-06-26T06:08:31;13.98;;;2.75;;
52274;SDS011;38228;50.940;4.024;2023-06-26T06:10:57;12.63;;;2.33;;
52274;SDS011;38228;50.940;4.024;2023-06-26T06:13:24;13.65;;;2.83;;
52274;SDS011;38228;50.940;4.024;2023-06-26T06:15:50;8.00;;;2.30;;
52274;SDS011;38228;50.940;4.024;2023-06-26T06:18:16;8.65;;;2.42;;
52274;SDS011;38228;50.940;4.024;2023-06-26T06:20:41;8.10;;;2.38;;
52274;SDS011;38228;50.940;4.024;2023-06-26T06:23:07;12.07;;;2.22;;
52274;SDS011;38228;50.940;4.024;2023-06-26T06:25:33;9.85;;;2.00;;
52274;SDS011;38228;50.940;4.024;2023-06-26T06:27:59;8.73;;;1.75;;
52274;SDS011;38228;50.940;4.024;2023-06-26T06:30:24;16.00;;;2.67;;
52274;SDS011;38228;50.940;4.024;2023-06-26T06:32:50;8.82;;;2.03;;
52274;SDS011;38228;50.940;4.024;2023-06-26T06:35:18;9.98;;;2.00;;
52274;SDS011;38228;50.940;4.024;2023-06-26T06:37:44;7.20;;;2.20;;
52274;SDS011;38228;50.940;4.024;2023-06-26T06:40:10;10.50;;;2.20;;
52274;SDS011;38228;50.940;4.024;2023-06-26T06:42:36;13.27;;;2.40;;
52274;SDS011;38228;50.940;4.024;2023-06-26T06:45:02;12.05;;;2.22;;
52274;SDS011;38228;50.940;4.024;2023-06-26T06:47:28;8.23;;;1.70;;
52274;SDS011;38228;50.940;4.024;2023-06-26T06:49:54;8.23;;;2.22;;
52274;SDS011;38228;50.940;4.024;2023-06-26T06:52:20;5.18;;;1.60;;
52274;SDS011;38228;50.940;4.024;2023-06-26T06:54:55;8.00;;;2.28;;
52274;SDS011;38228;50.940;4.024;2023-06-26T06:57:26;12.25;;;2.13;;
52274;SDS011;38228;50.940;4.024;2023-06-26T06:59:52;11.40;;;1.70;;
52274;SDS011;38228;50.940;4.024;2023-06-26T07:02:18;6.75;;;2.03;;
52274;SDS011;38228;50.940;4.024;2023-06-26T07:04:44;8.73;;;2.15;;
52274;SDS011;38228;50.940;4.024;2023-06-26T07:07:09;7.53;;;1.75;;
52274;SDS011;38228;50.940;4.024;2023-06-26T07:09:38;10.38;;;2.28;;
52274;SDS011;38228;50.940;4.024;2023-06-26T07:12:04;10.07;;;2.42;;
52274;SDS011;38228;50.940;4.024;2023-06-26T07:14:30;12.50;;;2.55;;
52274;SDS011;38228;50.940;4.024;2023-06-26T07:16:56;8.95;;;2.15;;
52274;SDS011;38228;50.940;4.024;2023-06-26T07:19:21;7.18;;;2.45;;
52274;SDS011;38228;50.940;4.024;2023-06-26T07:21:47;14.32;;;2.03;;
52274;SDS011;38228;50.940;4.024;2023-06-26T07:24:13;12.55;;;2.08;;
52274;SDS011;38228;50.940;4.024;2023-06-26T07:26:39;7.22;;;1.92;;
52274;SDS011;38228;50.940;4.024;2023-06-26T07:29:05;5.97;;;2.00;;
52274;SDS011;38228;50.940;4.024;2023-06-26T07:31:30;8.65;;;2.28;;
52274;SDS011;38228;50.940;4.024;2023-06-26T07:33:56;7.38;;;2.10;;
52274;SDS011;38228;50.940;4.024;2023-06-26T07:36:22;7.55;;;2.10;;
52274;SDS011;38228;50.940;4.024;2023-06-26T07:38:47;5.93;;;2.10;;
52274;SDS011;38228;50.940;4.024;2023-06-26T07:41:13;9.75;;;2.47;;
52274;SDS011;38228;50.940;4.024;2023-06-26T07:43:39;8.48;;;2.17;;
52274;SDS011;38228;50.940;4.024;2023-06-26T07:46:04;8.45;;;2.30;;
52274;SDS011;38228;50.940;4.024;2023-06-26T07:48:30;8.40;;;2.10;;
52274;SDS011;38228;50.940;4.024;2023-06-26T07:50:56;10.73;;;2.95;;
52274;SDS011;38228;50.940;4.024;2023-06-26T07:53:21;13.43;;;3.88;;
52274;SDS011;38228;50.940;4.024;2023-06-26T07:55:47;9.00;;;2.67;;
52274;SDS011;38228;50.940;4.024;2023-06-26T07:58:13;8.70;;;1.98;;
52274;SDS011;38228;50.940;4.024;2023-06-26T08:00:39;9.23;;;2.45;;
52274;SDS011;38228;50.940;4.024;2023-06-26T08:03:05;6.47;;;2.05;;
52274;SDS011;38228;50.940;4.024;2023-06-26T08:05:31;7.80;;;2.17;;
52274;SDS011;38228;50.940;4.024;2023-06-26T08:07:57;14.77;;;4.60;;
52274;SDS011;38228;50.940;4.024;2023-06-26T08:10:22;5.43;;;1.77;;
52274;SDS011;38228;50.940;4.024;2023-06-26T08:12:48;7.28;;;2.00;;
52274;SDS011;38228;50.940;4.024;2023-06-26T08:15:15;14.00;;;4.22;;
52274;SDS011;38228;50.940;4.024;2023-06-26T08:17:41;7.78;;;2.42;;
52274;SDS011;38228;50.940;4.024;2023-06-26T08:20:07;8.48;;;2.15;;
52274;SDS011;38228;50.940;4.024;2023-06-26T08:22:33;6.53;;;2.15;;
52274;SDS011;38228;50.940;4.024;2023-06-26T08:24:59;4.72;;;1.42;;
52274;SDS011;38228;50.940;4.024;2023-06-26T08:27:25;9.15;;;2.10;;
52274;SDS011;38228;50.940;4.024;2023-06-26T08:29:51;6.93;;;1.90;;
52274;SDS011;38228;50.940;4.024;2023-06-26T08:32:16;9.45;;;2.05;;
52274;SDS011;38228;50.940;4.024;2023-06-26T08:34:42;6.00;;;1.90;;
52274;SDS011;38228;50.940;4.024;2023-06-26T08:37:08;6.18;;;2.00;;
52274;SDS011;38228;50.940;4.024;2023-06-26T08:39:36;7.43;;;2.33;;
52274;SDS011;38228;50.940;4.024;2023-06-26T08:42:02;9.63;;;2.00;;
52274;SDS011;38228;50.940;4.024;2023-06-26T08:44:27;9.75;;;1.85;;
52274;SDS011;38228;50.940;4.024;2023-06-26T08:46:53;5.80;;;2.08;;
52274;SDS011;38228;50.940;4.024;2023-06-26T08:49:26;5.50;;;1.60;;
52274;SDS011;38228;50.940;4.024;2023-06-26T08:52:09;7.32;;;1.52;;
52274;SDS011;38228;50.940;4.024;2023-06-26T08:54:42;5.93;;;1.40;;
52274;SDS011;38228;50.940;4.024;2023-06-26T08:57:12;5.63;;;1.50;;
52274;SDS011;38228;50.940;4.024;2023-06-26T08:59:42;4.72;;;1.13;;
52274;SDS011;38228;50.940;4.024;2023-06-26T09:02:08;5.78;;;1.63;;
52274;SDS011;38228;50.940;4.024;2023-06-26T09:04:35;8.25;;;1.45;;
52274;SDS011;38228;50.940;4.024;2023-06-26T09:07:01;5.95;;;1.40;;
52274;SDS011;38228;50.940;4.024;2023-06-26T09:09:27;3.85;;;1.20;;
52274;SDS011;38228;50.940;4.024;2023-06-26T09:11:53;6.05;;;1.52;;
52274;SDS011;38228;50.940;4.024;2023-06-26T09:14:20;5.88;;;1.70;;
52274;SDS011;38228;50.940;4.024;2023-06-26T09:16:46;8.00;;;1.60;;
52274;SDS011;38228;50.940;4.024;2023-06-26T09:19:12;5.90;;;1.15;;
52274;SDS011;38228;50.940;4.024;2023-06-26T09:21:41;8.35;;;2.00;;
52274;SDS011;38228;50.940;4.024;2023-06-26T09:24:08;6.20;;;1.50;;
52274;SDS011;38228;50.940;4.024;2023-06-26T09:26:37;7.13;;;1.23;;
52274;SDS011;38228;50.940;4.024;2023-06-26T09:29:05;9.98;;;1.60;;
52274;SDS011;38228;50.940;4.024;2023-06-26T09:31:32;6.88;;;1.25;;
52274;SDS011;38228;50.940;4.024;2023-06-26T09:33:59;4.18;;;1.17;;
52274;SDS011;38228;50.940;4.024;2023-06-26T09:36:27;8.32;;;1.35;;
52274;SDS011;38228;50.940;4.024;2023-06-26T09:38:54;7.18;;;1.40;;
52274;SDS011;38228;50.940;4.024;2023-06-26T09:41:20;4.57;;;1.10;;
52274;SDS011;38228;50.940;4.024;2023-06-26T09:43:49;4.20;;;1.23;;
52274;SDS011;38228;50.940;4.024;2023-06-26T09:46:25;6.55;;;1.30;;
52274;SDS011;38228;50.940;4.024;2023-06-26T09:48:58;7.05;;;1.67;;
52274;SDS011;38228;50.940;4.024;2023-06-26T09:51:38;7.88;;;1.40;;
52274;SDS011;38228;50.940;4.024;2023-06-26T09:54:06;6.00;;;1.33;;
52274;SDS011;38228;50.940;4.024;2023-06-26T09:56:33;6.55;;;1.50;;
52274;SDS011;38228;50.940;4.024;2023-06-26T09:59:00;6.80;;;2.08;;
52274;SDS011;38228;50.940;4.024;2023-06-26T10:01:29;5.10;;;1.23;;
52274;SDS011;38228;50.940;4.024;2023-06-26T10:03:56;7.15;;;1.58;;
52274;SDS011;38228;50.940;4.024;2023-06-26T10:06:26;4.60;;;1.45;;
52274;SDS011;38228;50.940;4.024;2023-06-26T10:08:56;6.68;;;1.83;;
52274;SDS011;38228;50.940;4.024;2023-06-26T10:11:25;6.15;;;1.50;;
52274;SDS011;38228;50.940;4.024;2023-06-26T10:14:07;4.57;;;1.10;;
52274;SDS011;38228;50.940;4.024;2023-06-26T10:16:36;7.30;;;1.33;;
52274;SDS011;38228;50.940;4.024;2023-06-26T10:19:05;3.97;;;1.20;;
52274;SDS011;38228;50.940;4.024;2023-06-26T10:21:33;6.90;;;1.25;;
52274;SDS011;38228;50.940;4.024;2023-06-26T10:24:00;3.53;;;1.15;;
52274;SDS011;38228;50.940;4.024;2023-06-26T10:26:28;3.72;;;0.90;;
52274;SDS011;38228;50.940;4.024;2023-06-26T10:28:55;3.17;;;0.98;;
52274;SDS011;38228;50.940;4.024;2023-06-26T10:31:23;8.48;;;1.25;;
52274;SDS011;38228;50.940;4.024;2023-06-26T10:33:53;5.47;;;1.40;;
52274;SDS011;38228;50.940;4.024;2023-06-26T10:36:20;7.05;;;1.38;;
52274;SDS011;38228;50.940;4.024;2023-06-26T10:38:55;4.38;;;1.20;;
52274;SDS011;38228;50.940;4.024;2023-06-26T10:41:22;4.60;;;1.52;;
52274;SDS011;38228;50.940;4.024;2023-06-26T10:43:50;5.07;;;1.20;;
52274;SDS011;38228;50.940;4.024;2023-06-26T10:46:24;2.70;;;1.00;;
52274;SDS011;38228;50.940;4.024;2023-06-26T10:48:57;7.25;;;1.30;;
52274;SDS011;38228;50.940;4.024;2023-06-26T10:51:27;4.10;;;1.10;;
52274;SDS011;38228;50.940;4.024;2023-06-26T10:53:53;4.18;;;1.20;;
52274;SDS011;38228;50.940;4.024;2023-06-26T10:56:42;2.90;;;1.13;;
52274;SDS011;38228;50.940;4.024;2023-06-26T11:01:42;5.25;;;1.45;;
52274;SDS011;38228;50.940;4.024;2023-06-26T11:04:08;4.05;;;1.38;;
52274;SDS011;38228;50.940;4.024;2023-06-26T11:06:36;7.25;;;1.50;;
52274;SDS011;38228;50.940;4.024;2023-06-26T11:14:20;4.63;;;1.65;;
52274;SDS011;38228;50.940;4.024;2023-06-26T11:16:47;6.63;;;1.40;;
52274;SDS011;38228;50.940;4.024;2023-06-26T11:19:16;7.22;;;1.52;;
52274;SDS011;38228;50.940;4.024;2023-06-26T11:21:43;4.63;;;1.52;;
52274;SDS011;38228;50.940;4.024;2023-06-26T11:24:09;4.53;;;1.30;;
52274;SDS011;38228;50.940;4.024;2023-06-26T11:26:39;6.43;;;1.48;;
52274;SDS011;38228;50.940;4.024;2023-06-26T11:29:06;5.03;;;1.70;;
52274;SDS011;38228;50.940;4.024;2023-06-26T11:31:32;5.72;;;1.83;;
52274;SDS011;38228;50.940;4.024;2023-06-26T11:34:00;8.00;;;1.60;;
52274;SDS011;38228;50.940;4.024;2023-06-26T11:36:28;6.00;;;1.83;;
52274;SDS011;38228;50.940;4.024;2023-06-26T11:38:58;6.40;;;1.48;;
52274;SDS011;38228;50.940;4.024;2023-06-26T11:41:29;6.93;;;1.65;;
52274;SDS011;38228;50.940;4.024;2023-06-26T11:43:59;5.93;;;1.27;;
52274;SDS011;38228;50.940;4.024;2023-06-26T11:46:26;3.80;;;1.40;;
52274;SDS011;38228;50.940;4.024;2023-06-26T11:48:53;5.00;;;1.75;;
52274;SDS011;38228;50.940;4.024;2023-06-26T11:51:19;7.00;;;2.05;;
52274;SDS011;38228;50.940;4.024;2023-06-26T11:53:45;6.60;;;1.60;;
52274;SDS011;38228;50.940;4.024;2023-06-26T11:56:13;7.60;;;1.77;;
52274;SDS011;38228;50.940;4.024;2023-06-26T11:58:59;6.78;;;1.40;;
52274;SDS011;38228;50.940;4.024;2023-06-26T12:03:58;3.95;;;1.25;;
52274;SDS011;38228;50.940;4.024;2023-06-26T12:06:26;7.75;;;1.67;;
52274;SDS011;38228;50.940;4.024;2023-06-26T12:08:53;5.28;;;1.40;;
52274;SDS011;38228;50.940;4.024;2023-06-26T12:11:20;5.75;;;1.45;;
52274;SDS011;38228;50.940;4.024;2023-06-26T12:13:48;4.45;;;1.30;;
52274;SDS011;38228;50.940;4.024;2023-06-26T12:16:14;4.75;;;1.25;;
52274;SDS011;38228;50.940;4.024;2023-06-26T12:18:40;11.48;;;2.13;;
52274;SDS011;38228;50.940;4.024;2023-06-26T12:21:06;5.63;;;1.20;;
52274;SDS011;38228;50.940;4.024;2023-06-26T12:23:41;4.85;;;1.58;;
52274;SDS011;38228;50.940;4.024;2023-06-26T12:26:19;5.78;;;1.42;;
52274;SDS011;38228;50.940;4.024;2023-06-26T12:28:46;8.27;;;1.60;;
52274;SDS011;38228;50.940;4.024;2023-06-26T12:31:13;6.22;;;1.40;;
52274;SDS011;38228;50.940;4.024;2023-06-26T12:33:39;5.68;;;1.40;;
52274;SDS011;38228;50.940;4.024;2023-06-26T12:36:06;4.30;;;1.58;;
52274;SDS011;38228;50.940;4.024;2023-06-26T12:38:36;6.90;;;1.38;;
52274;SDS011;38228;50.940;4.024;2023-06-26T12:41:02;3.58;;;1.17;;
52274;SDS011;38228;50.940;4.024;2023-06-26T12:43:27;2.80;;;1.25;;
52274;SDS011;38228;50.940;4.024;2023-06-26T12:45:54;4.88;;;1.52;;
52274;SDS011;38228;50.940;4.024;2023-06-26T12:48:21;5.28;;;1.42;;
52274;SDS011;38228;50.940;4.024;2023-06-26T12:50:47;11.85;;;1.95;;
52274;SDS011;38228;50.940;4.024;2023-06-26T12:53:13;4.93;;;1.40;;
52274;SDS011;38228;50.940;4.024;2023-06-26T12:55:39;4.20;;;1.00;;
52274;SDS011;38228;50.940;4.024;2023-06-26T12:58:04;6.15;;;1.17;;
52274;SDS011;38228;50.940;4.024;2023-06-26T13:00:30;3.33;;;1.30;;
52274;SDS011;38228;50.940;4.024;2023-06-26T13:02:57;4.53;;;1.30;;
52274;SDS011;38228;50.940;4.024;2023-06-26T13:05:23;5.65;;;1.30;;
52274;SDS011;38228;50.940;4.024;2023-06-26T13:07:49;4.82;;;1.48;;
52274;SDS011;38228;50.940;4.024;2023-06-26T13:10:15;9.52;;;1.58;;
52274;SDS011;38228;50.940;4.024;2023-06-26T13:12:41;5.32;;;1.45;;
52274;SDS011;38228;50.940;4.024;2023-06-26T13:15:06;8.15;;;1.70;;
52274;SDS011;38228;50.940;4.024;2023-06-26T13:17:33;4.30;;;1.60;;
52274;SDS011;38228;50.940;4.024;2023-06-26T13:19:59;4.55;;;1.00;;
52274;SDS011;38228;50.940;4.024;2023-06-26T13:22:25;4.20;;;1.50;;
52274;SDS011;38228;50.940;4.024;2023-06-26T13:24:50;6.15;;;1.55;;
52274;SDS011;38228;50.940;4.024;2023-06-26T13:27:16;4.40;;;1.40;;
52274;SDS011;38228;50.940;4.024;2023-06-26T13:29:42;5.93;;;1.33;;
52274;SDS011;38228;50.940;4.024;2023-06-26T13:32:08;7.25;;;1.35;;
52274;SDS011;38228;50.940;4.024;2023-06-26T13:34:34;6.38;;;1.60;;
52274;SDS011;38228;50.940;4.024;2023-06-26T13:36:59;2.78;;;1.05;;
52274;SDS011;38228;50.940;4.024;2023-06-26T13:39:25;7.10;;;1.23;;
52274;SDS011;38228;50.940;4.024;2023-06-26T13:41:51;7.88;;;1.42;;
52274;SDS011;38228;50.940;4.024;2023-06-26T13:44:17;5.85;;;1.45;;
52274;SDS011;38228;50.940;4.024;2023-06-26T13:46:43;6.65;;;1.90;;
52274;SDS011;38228;50.940;4.024;2023-06-26T13:49:08;5.38;;;1.52;;
52274;SDS011;38228;50.940;4.024;2023-06-26T13:51:34;4.40;;;1.45;;
52274;SDS011;38228;50.940;4.024;2023-06-26T13:54:00;5.03;;;1.52;;
52274;SDS011;38228;50.940;4.024;2023-06-26T13:56:26;5.95;;;1.60;;
52274;SDS011;38228;50.940;4.024;2023-06-26T13:58:55;4.07;;;1.17;;
52274;SDS011;38228;50.940;4.024;2023-06-26T14:01:21;4.32;;;1.50;;
52274;SDS011;38228;50.940;4.024;2023-06-26T14:03:48;8.02;;;1.65;;
52274;SDS011;38228;50.940;4.024;2023-06-26T14:06:14;4.03;;;1.13;;
52274;SDS011;38228;50.940;4.024;2023-06-26T14:08:42;7.25;;;1.45;;
52274;SDS011;38228;50.940;4.024;2023-06-26T14:11:07;5.35;;;1.33;;
52274;SDS011;38228;50.940;4.024;2023-06-26T14:13:33;4.75;;;1.35;;
52274;SDS011;38228;50.940;4.024;2023-06-26T14:16:00;7.18;;;1.75;;
52274;SDS011;38228;50.940;4.024;2023-06-26T14:18:25;5.10;;;1.23;;
52274;SDS011;38228;50.940;4.024;2023-06-26T14:20:53;4.53;;;1.20;;
52274;SDS011;38228;50.940;4.024;2023-06-26T14:23:18;7.00;;;1.27;;
52274;SDS011;38228;50.940;4.024;2023-06-26T14:25:44;6.88;;;1.30;;
52274;SDS011;38228;50.940;4.024;2023-06-26T14:28:10;3.75;;;1.38;;
52274;SDS011;38228;50.940;4.024;2023-06-26T14:30:36;4.85;;;1.35;;
52274;SDS011;38228;50.940;4.024;2023-06-26T14:33:01;5.70;;;1.10;;
52274;SDS011;38228;50.940;4.024;2023-06-26T14:35:27;3.85;;;1.40;;
52274;SDS011;38228;50.940;4.024;2023-06-26T14:37:53;3.40;;;1.38;;
52274;SDS011;38228;50.940;4.024;2023-06-26T14:40:19;6.18;;;1.60;;
52274;SDS011;38228;50.940;4.024;2023-06-26T14:42:45;6.53;;;1.48;;
52274;SDS011;38228;50.940;4.024;2023-06-26T14:45:10;4.85;;;1.40;;
52274;SDS011;38228;50.940;4.024;2023-06-26T14:47:36;6.28;;;1.30;;
52274;SDS011;38228;50.940;4.024;2023-06-26T14:50:02;8.18;;;1.30;;
52274;SDS011;38228;50.940;4.024;2023-06-26T14:52:28;7.15;;;1.60;;
52274;SDS011;38228;50.940;4.024;2023-06-26T14:54:53;4.80;;;1.30;;
52274;SDS011;38228;50.940;4.024;2023-06-26T14:57:19;3.88;;;1.10;;